Terminal Aerodrome Forecast
Issued by NWS

Home | Current Version | Previous Version | Text Only | Print | Product List | Glossary Off
Versions: 1 2 3 4 5 6 7 8 9 10 11 12 13 14 15

199
FTUS43 KTOP 071133
TAFFOE
TAF
KFOE 071133Z 0712/0812 25012KT P6SM BKN150
     FM071700 31022G33KT P6SM SCT090
     FM080000 31019G27KT P6SM BKN060
     FM080700 31020G28KT P6SM SCT020 OVC035=

USA.gov is the U.S. government's official web portal to all federal, state and local government web resources and services.